createdAt,value
2023-04-29T00:02:55.341Z,9.55
2023-04-29T00:05:57.191Z,9.93
2023-04-29T00:08:58.824Z,18.50
2023-04-29T00:12:00.393Z,9.48
2023-04-29T00:15:02.982Z,10.05
2023-04-29T00:18:04.624Z,16.02
2023-04-29T00:21:06.202Z,8.98
2023-04-29T01:02:30.127Z,17.38
2023-04-29T01:05:31.655Z,21.25
2023-04-29T01:08:51.314Z,22.35
2023-04-29T01:12:06.739Z,16.15
2023-04-29T01:15:29.418Z,14.48
2023-04-29T01:18:36.779Z,17.17
2023-04-29T01:21:50.719Z,18.35
2023-04-29T01:24:52.179Z,16.33
2023-04-29T01:28:02.655Z,29.65
2023-04-29T01:31:26.390Z,35.08
2023-04-29T01:34:31.605Z,23.20
2023-04-29T01:37:59.525Z,19.33
2023-04-29T01:41:08.692Z,21.05
2023-04-29T01:44:14.931Z,18.15
2023-04-29T01:47:17.263Z,28.67
2023-04-29T01:50:18.748Z,23.67
2023-04-29T01:53:20.189Z,10.23
2023-04-29T01:56:21.691Z,20.88
2023-04-29T01:59:23.142Z,11.73
2023-04-29T02:02:25.483Z,20.15
2023-04-29T02:05:27.031Z,36.60
2023-04-29T02:08:28.467Z,14.88
2023-04-29T02:11:29.981Z,14.93
2023-04-29T02:14:31.574Z,14.52
2023-04-29T02:17:33.967Z,13.38
2023-04-29T02:20:35.518Z,13.02
2023-04-29T02:23:36.943Z,13.82
2023-04-29T02:26:38.841Z,17.95
2023-04-29T02:29:40.270Z,15.18
2023-04-29T02:32:41.762Z,11.77
2023-04-29T02:35:43.265Z,13.30
2023-04-29T02:38:44.729Z,11.68
2023-04-29T02:41:46.247Z,13.60
2023-04-29T02:44:47.707Z,16.60
2023-04-29T02:47:49.218Z,14.80
2023-04-29T02:50:50.660Z,12.27
2023-04-29T02:53:52.111Z,15.63
2023-04-29T02:56:53.809Z,9.02
2023-04-29T02:59:55.442Z,9.68
2023-04-29T03:02:57.654Z,9.18
2023-04-29T03:05:59.353Z,14.32
2023-04-29T03:09:00.824Z,13.40
2023-04-29T03:12:02.994Z,13.38
2023-04-29T03:21:08.587Z,12.00
2023-04-29T03:24:10.121Z,12.15
2023-04-29T03:27:11.559Z,12.68
2023-04-29T03:30:13.047Z,14.60
2023-04-29T03:33:14.481Z,17.00
2023-04-29T03:36:15.991Z,16.40
2023-04-29T03:39:18.068Z,11.30
2023-04-29T03:42:19.578Z,10.45
2023-04-29T03:45:21.188Z,10.10
2023-04-29T03:48:22.759Z,9.63
2023-04-29T03:51:24.376Z,9.48
2023-04-29T03:54:26.045Z,9.65
2023-04-29T03:57:27.485Z,10.43
2023-04-29T04:00:31.193Z,9.07
2023-04-29T04:03:32.825Z,8.82
2023-04-29T04:06:34.471Z,8.90
2023-04-29T04:09:35.949Z,8.63
2023-04-29T04:12:37.461Z,11.50
2023-04-29T04:15:38.973Z,9.75
2023-04-29T04:18:40.445Z,11.02
2023-04-29T04:21:42.408Z,8.20
2023-04-29T04:24:43.866Z,13.52
2023-04-29T04:27:45.297Z,7.70
2023-04-29T04:30:46.874Z,7.20
2023-04-29T04:33:48.307Z,7.07
2023-04-29T04:36:49.764Z,6.80
2023-04-29T04:39:51.389Z,7.70
2023-04-29T04:42:54.713Z,8.02
2023-04-29T04:45:57.287Z,7.30
2023-04-29T04:52:00.194Z,6.55
2023-04-29T04:55:01.699Z,10.00
2023-04-29T04:58:03.178Z,7.40
2023-04-29T05:01:04.703Z,8.68
2023-04-29T05:04:06.630Z,7.50
2023-04-29T05:07:08.266Z,6.95
2023-04-29T05:10:10.553Z,7.15
2023-04-29T05:16:13.413Z,6.40
2023-04-29T05:19:14.878Z,8.77
2023-04-29T05:22:16.331Z,6.53
2023-04-29T05:25:17.785Z,6.68
2023-04-29T05:28:19.320Z,6.22
2023-04-29T05:31:21.138Z,6.88
2023-04-29T05:34:22.615Z,6.45
2023-04-29T05:37:24.066Z,8.10
2023-04-29T05:40:25.624Z,12.15
2023-04-29T05:43:27.699Z,8.02
2023-04-29T05:46:29.183Z,7.38
2023-04-29T05:49:30.780Z,6.78
2023-04-29T05:52:32.316Z,8.50
2023-04-29T05:55:33.863Z,9.23
2023-04-29T05:58:35.626Z,7.20
2023-04-29T06:01:37.096Z,8.15
2023-04-29T06:04:41.319Z,6.30
2023-04-29T06:07:43.194Z,6.53
2023-04-29T06:10:44.718Z,7.95
2023-04-29T06:13:46.162Z,6.88
2023-04-29T06:16:49.062Z,6.43
2023-04-29T06:19:50.897Z,6.75
2023-04-29T06:22:52.565Z,8.35
2023-04-29T06:25:54.056Z,9.32
2023-04-29T06:28:55.487Z,8.35
2023-04-29T06:31:57.000Z,9.03
2023-04-29T06:34:58.463Z,6.78
2023-04-29T06:37:59.890Z,7.25
2023-04-29T06:41:01.372Z,7.97
2023-04-29T06:44:03.218Z,10.10
2023-04-29T06:47:04.721Z,8.50
2023-04-29T06:50:06.608Z,13.30
2023-04-29T06:53:08.039Z,8.70
2023-04-29T06:56:09.480Z,11.07
2023-04-29T06:59:12.579Z,8.63
2023-04-29T07:02:14.090Z,8.40
2023-04-29T07:05:15.561Z,8.60
2023-04-29T07:08:17.073Z,8.35
2023-04-29T07:11:19.099Z,8.63
2023-04-29T07:14:22.308Z,8.18
2023-04-29T07:17:23.749Z,9.45
2023-04-29T07:20:25.840Z,9.13
2023-04-29T07:23:27.286Z,9.85
2023-04-29T07:26:28.739Z,8.23
2023-04-29T07:29:30.485Z,13.03
2023-04-29T07:32:32.485Z,8.88
2023-04-29T07:35:34.084Z,8.95
2023-04-29T07:38:36.896Z,7.45
2023-04-29T07:41:38.351Z,7.43
2023-04-29T07:44:39.869Z,26.75
2023-04-29T07:47:41.376Z,8.52
2023-04-29T07:50:43.567Z,7.78
2023-04-29T07:56:46.484Z,8.15
2023-04-29T07:59:52.480Z,12.18
2023-04-29T08:02:54.770Z,7.95
2023-04-29T08:06:01.024Z,10.95
2023-04-29T08:09:03.320Z,9.88
2023-04-29T08:12:05.466Z,7.38
2023-04-29T08:18:11.155Z,8.48
2023-04-29T08:21:12.646Z,14.75
2023-04-29T08:24:14.150Z,7.75
2023-04-29T08:27:15.720Z,9.30
2023-04-29T08:30:17.380Z,9.55
2023-04-29T08:33:18.977Z,9.45
2023-04-29T08:36:20.682Z,9.45
2023-04-29T08:39:22.481Z,10.00
2023-04-29T08:42:34.790Z,9.27
2023-04-29T08:48:41.311Z,8.63
2023-04-29T08:51:44.121Z,8.32
2023-04-29T08:54:45.561Z,10.45
2023-04-29T08:57:46.984Z,10.55
2023-04-29T09:00:48.460Z,12.23
2023-04-29T09:04:29.969Z,12.30
2023-04-29T09:07:31.781Z,11.35
2023-04-29T09:10:33.315Z,10.88
2023-04-29T09:13:34.751Z,13.85
2023-04-29T09:16:38.248Z,13.98
2023-04-29T09:19:39.838Z,11.65
2023-04-29T09:22:51.353Z,10.02
2023-04-29T09:25:57.073Z,13.37
2023-04-29T09:29:13.812Z,9.73
2023-04-29T09:32:21.451Z,9.30
2023-04-29T09:35:27.301Z,9.55
2023-04-29T09:38:28.796Z,11.95
2023-04-29T09:41:30.456Z,10.02
2023-04-29T09:44:35.753Z,8.43
2023-04-29T09:47:37.769Z,8.13
2023-04-29T09:50:39.865Z,7.75
2023-04-29T09:56:52.561Z,7.85
2023-04-29T09:59:54.031Z,7.30
2023-04-29T10:02:55.601Z,5.70
2023-04-29T10:05:57.278Z,7.20
2023-04-29T10:08:58.735Z,8.70
2023-04-29T10:12:00.199Z,7.00
2023-04-29T10:15:04.900Z,5.18
2023-04-29T10:18:22.099Z,5.05
2023-04-29T10:21:28.302Z,6.00
2023-04-29T10:24:30.205Z,5.68
2023-04-29T10:30:33.080Z,7.30
2023-04-29T10:33:35.102Z,5.97
2023-04-29T10:36:36.789Z,5.78
2023-04-29T10:39:50.372Z,6.43
2023-04-29T10:42:52.789Z,6.95
2023-04-29T10:46:16.258Z,6.32
2023-04-29T10:49:17.752Z,8.80
2023-04-29T10:52:19.182Z,8.50
2023-04-29T10:55:20.773Z,6.15
2023-04-29T10:58:34.447Z,5.43
2023-04-29T11:01:49.927Z,7.18
2023-04-29T11:05:08.143Z,5.68
2023-04-29T11:08:23.996Z,10.63
2023-04-29T11:11:27.164Z,6.13
2023-04-29T11:14:36.322Z,4.30
2023-04-29T11:17:38.457Z,6.07
2023-04-29T11:21:08.209Z,5.10
2023-04-29T11:24:09.703Z,7.15
2023-04-29T11:27:11.153Z,10.85
2023-04-29T11:30:13.135Z,8.15
2023-04-29T11:36:16.149Z,5.78
2023-04-29T11:39:17.595Z,5.70
2023-04-29T11:42:22.040Z,7.03
2023-04-29T11:45:23.768Z,7.22
2023-04-29T11:48:25.994Z,8.77
2023-04-29T11:51:28.525Z,11.77
2023-04-29T11:54:30.506Z,6.05
2023-04-29T11:57:31.960Z,8.48
2023-04-29T12:00:33.500Z,7.80
2023-04-29T12:03:36.726Z,10.07
2023-04-29T12:06:38.391Z,9.25
2023-04-29T12:09:46.254Z,6.28
2023-04-29T12:12:47.723Z,6.43
2023-04-29T12:15:50.040Z,7.05
2023-04-29T12:18:52.615Z,6.43
2023-04-29T12:21:54.080Z,5.03
2023-04-29T12:24:56.017Z,7.57
2023-04-29T12:28:01.655Z,7.57
2023-04-29T12:31:03.383Z,4.95
2023-04-29T12:34:07.475Z,5.55
2023-04-29T12:37:13.099Z,5.93
2023-04-29T12:40:17.808Z,7.18
2023-04-29T12:43:20.209Z,5.38
2023-04-29T12:46:23.405Z,6.53
2023-04-29T12:49:25.115Z,6.03
2023-04-29T12:52:26.804Z,8.60
2023-04-29T12:55:28.381Z,4.47
2023-04-29T12:58:30.641Z,6.35
2023-04-29T13:01:32.678Z,4.72
2023-04-29T13:07:38.402Z,5.65
2023-04-29T13:10:40.174Z,4.88
2023-04-29T13:13:41.914Z,5.55
2023-04-29T13:16:43.662Z,4.07
2023-04-29T13:19:51.689Z,7.05
2023-04-29T13:22:53.762Z,4.63
2023-04-29T13:25:55.366Z,4.43
2023-04-29T13:28:56.916Z,7.32
2023-04-29T13:31:58.519Z,7.32
2023-04-29T13:35:00.167Z,5.50
2023-04-29T13:38:02.527Z,6.28
2023-04-29T13:41:16.396Z,8.57
2023-04-29T13:44:29.358Z,6.43
2023-04-29T13:47:34.838Z,5.65
2023-04-29T13:54:37.378Z,10.88
2023-04-29T14:00:31.836Z,8.32
2023-04-29T14:06:40.286Z,7.13
2023-04-29T14:09:41.908Z,7.75
2023-04-29T14:12:43.444Z,6.70
2023-04-29T14:15:45.025Z,7.97
2023-04-29T14:18:49.377Z,5.95
2023-04-29T14:21:51.992Z,8.77
2023-04-29T14:24:53.911Z,9.82
2023-04-29T14:30:57.751Z,9.52
2023-04-29T14:33:59.667Z,11.45
2023-04-29T14:37:04.526Z,7.47
2023-04-29T14:40:06.790Z,11.00
2023-04-29T14:44:04.294Z,9.98
2023-04-29T14:47:06.103Z,8.88
2023-04-29T14:50:08.830Z,8.93
2023-04-29T14:53:19.135Z,11.60
2023-04-29T14:56:20.730Z,10.43
2023-04-29T14:59:22.409Z,9.82
2023-04-29T15:02:24.026Z,11.20
2023-04-29T15:05:25.714Z,12.27
2023-04-29T15:08:27.699Z,10.27
2023-04-29T15:11:29.381Z,9.45
2023-04-29T15:14:31.136Z,10.10
2023-04-29T15:17:32.871Z,9.27
2023-04-29T15:20:36.108Z,9.07
2023-04-29T15:23:37.839Z,8.52
2023-04-29T15:26:40.478Z,14.43
2023-04-29T15:29:42.240Z,9.38
2023-04-29T15:32:44.207Z,9.45
2023-04-29T15:39:28.241Z,9.13
2023-04-29T15:42:43.430Z,8.00
2023-04-29T15:49:28.092Z,9.18
2023-04-29T15:53:00.186Z,7.25
2023-04-29T15:56:12.437Z,8.60
2023-04-29T16:06:22.632Z,8.15
2023-04-29T16:09:26.787Z,13.88
2023-04-29T16:12:33.459Z,10.15
2023-04-29T16:15:49.599Z,7.03
2023-04-29T16:23:36.397Z,9.43
2023-04-29T16:30:09.181Z,8.63
2023-04-29T16:32:52.943Z,10.00
2023-04-29T16:33:13.274Z,9.18
2023-04-29T16:39:48.712Z,7.68
2023-04-29T16:42:51.263Z,7.72
2023-04-29T16:46:02.955Z,10.85
2023-04-29T16:49:14.066Z,8.10
2023-04-29T16:52:30.411Z,5.93
2023-04-29T16:55:38.142Z,14.55
2023-04-29T16:58:45.927Z,11.57
2023-04-29T17:01:52.177Z,9.20
2023-04-29T17:05:05.408Z,8.70
2023-04-29T17:08:09.663Z,6.78
2023-04-29T17:11:19.315Z,9.55
2023-04-29T17:14:41.459Z,8.32
2023-04-29T17:17:58.518Z,10.30
2023-04-29T17:21:03.040Z,7.57
2023-04-29T17:24:41.627Z,12.07
2023-04-29T17:27:49.119Z,9.63
2023-04-29T17:31:08.947Z,12.35
2023-04-29T17:34:27.775Z,9.10
2023-04-29T17:38:16.903Z,8.65
2023-04-29T17:41:24.009Z,8.27
2023-04-29T17:44:28.161Z,8.52
2023-04-29T17:47:30.046Z,8.43
2023-04-29T17:50:33.123Z,8.25
2023-04-29T17:53:39.176Z,11.43
2023-04-29T17:56:40.844Z,10.32
2023-04-29T17:59:57.856Z,11.20
2023-04-29T18:03:02.173Z,9.27
2023-04-29T18:06:11.505Z,11.60
2023-04-29T18:09:22.481Z,11.43
2023-04-29T18:12:38.300Z,11.73
2023-04-29T18:15:50.114Z,8.65
2023-04-29T18:18:57.640Z,8.40
2023-04-29T18:22:10.095Z,8.73
2023-04-29T18:25:20.567Z,9.77
2023-04-29T18:28:25.137Z,8.98
2023-04-29T18:31:27.451Z,9.63
2023-04-29T18:34:29.614Z,8.55
2023-04-29T18:40:36.367Z,7.35
2023-04-29T18:44:14.545Z,11.25
2023-04-29T18:47:22.245Z,9.15
2023-04-29T18:50:42.296Z,8.57
2023-04-29T18:53:46.348Z,12.30
2023-04-29T19:05:36.223Z,10.07
2023-04-29T19:09:06.135Z,8.82
2023-04-29T19:19:46.634Z,8.68
2023-04-29T19:23:03.869Z,13.50
2023-04-29T19:26:17.124Z,21.58
2023-04-29T19:29:55.803Z,16.05
2023-04-29T19:37:35.058Z,14.13
2023-04-29T19:40:36.977Z,19.65
2023-04-29T19:43:50.380Z,15.20
2023-04-29T19:47:09.325Z,20.23
2023-04-29T19:50:45.284Z,10.88
2023-04-29T19:53:56.857Z,20.60
2023-04-29T19:57:11.269Z,15.85
2023-04-29T20:00:22.046Z,12.20
2023-04-29T20:03:28.770Z,16.90
2023-04-29T20:06:37.737Z,13.20
2023-04-29T20:09:40.308Z,11.98
2023-04-29T20:12:49.790Z,9.32
2023-04-29T20:16:25.451Z,11.88
2023-04-29T20:19:31.466Z,12.73
2023-04-29T20:22:33.213Z,9.85
2023-04-29T20:25:34.864Z,10.10
2023-04-29T20:28:36.773Z,9.57
2023-04-29T20:31:39.979Z,8.20
2023-04-29T20:34:44.798Z,5.95
2023-04-29T20:37:46.995Z,8.65
2023-04-29T20:43:50.658Z,7.00
2023-04-29T20:46:53.150Z,6.53
2023-04-29T20:49:54.943Z,8.13
2023-04-29T20:55:58.722Z,8.23
2023-04-29T20:59:00.345Z,7.40
2023-04-29T21:02:02.387Z,6.25
2023-04-29T21:05:04.464Z,12.57
2023-04-29T21:11:10.144Z,14.45
2023-04-29T21:14:13.313Z,10.35
2023-04-29T21:17:18.705Z,9.60
2023-04-29T21:20:20.404Z,16.52
2023-04-29T21:23:24.036Z,6.95
2023-04-29T21:26:25.698Z,10.05
2023-04-29T21:29:27.524Z,10.40
2023-04-29T21:32:29.660Z,14.80
2023-04-29T21:38:35.751Z,8.10
2023-04-29T21:41:37.981Z,7.13
2023-04-29T21:44:39.725Z,10.60
2023-04-29T21:47:41.489Z,8.27
2023-04-29T21:50:43.638Z,6.57
2023-04-29T21:56:47.614Z,8.40
2023-04-29T21:59:51.079Z,9.70
2023-04-29T22:02:52.841Z,7.38
2023-04-29T22:05:54.490Z,8.15
2023-04-29T22:08:56.443Z,9.95
2023-04-29T22:11:58.143Z,6.35
2023-04-29T22:14:59.835Z,9.23
2023-04-29T22:18:04.607Z,5.47
2023-04-29T22:21:07.321Z,11.43
2023-04-29T22:24:11.497Z,8.90
2023-04-29T22:27:13.083Z,11.65
2023-04-29T22:30:15.116Z,8.00
2023-04-29T22:33:16.844Z,15.23
2023-04-29T22:36:18.920Z,8.25
2023-04-29T22:39:20.609Z,7.38
2023-04-29T22:42:22.376Z,8.75
2023-04-29T22:45:24.108Z,9.23
2023-04-29T22:48:27.593Z,7.32
2023-04-29T22:51:29.681Z,6.97
2023-04-29T22:54:31.369Z,9.13
2023-04-29T22:57:35.609Z,8.80
2023-04-29T23:00:37.200Z,5.82
2023-04-29T23:03:38.839Z,10.20
2023-04-29T23:06:40.875Z,7.07
2023-04-29T23:09:42.591Z,7.40
2023-04-29T23:12:44.252Z,9.68
2023-04-29T23:15:45.983Z,6.43
2023-04-29T23:18:47.701Z,6.63
2023-04-29T23:21:49.407Z,12.82
2023-04-29T23:24:56.038Z,8.50
2023-04-29T23:27:57.705Z,8.82
2023-04-29T23:30:59.372Z,7.95
2023-04-29T23:34:03.714Z,8.35
2023-04-29T23:37:05.545Z,7.28
2023-04-29T23:40:07.816Z,9.95
2023-04-29T23:43:09.730Z,7.95
2023-04-29T23:46:11.486Z,8.38
2023-04-29T23:49:13.270Z,5.50
2023-04-29T23:52:14.860Z,7.40
2023-04-29T23:55:16.515Z,11.38
2023-04-29T23:58:20.307Z,18.08
